NCAR-RAP Real-Time Weather Data

Output produced by METARs form (19 June 2019  11:19 UTC)
found at http://weather.rap.ucar.edu/surface/
 
RJTT 191100Z 18013KT 9999 FEW015 BKN/// 24/20 Q1004 NOSIG
 
RJAA 191100Z 17005KT 9999 FEW040 SCT/// 22/19 Q1005 NOSIG
 
RJAF 190700Z 35010KT 9999 FEW040 SCT060 BKN110 24/15 Q1006
 
RJAH 191100Z 19005KT 9999 FEW035 BKN040 24/16 Q1005
 
RJGG 191100Z 20009KT 9999 FEW020 BKN/// 23/20 Q1004 NOSIG
 
RJNK 191100Z 01003KT 9999 FEW060 SCT180 21/18 Q1005
 
RJNT 191100Z 36003KT 320V020 9999 FEW030 21/17 Q1005
 
RJNW 191000Z 11006KT 5000 BR FEW001 SCT003 18/18 Q1006
 
RJTF 190800Z 17010KT 140V210 9999 FEW030 SCT/// 26/19 Q1003
 
 
 
 
RJTF 190800Z 17010KT 140V210 9999 FEW030 SCT/// 26/19 Q1003
 
RJTI 190700Z 18013KT 130V220 9999 FEW030 SCT/// 25/21 Q1004
 
 
 
RJTO 190800Z 22012KT 9999 FEW015 BKN/// 25/20 Q1004
 
 
RJTT 191100Z 18013KT 9999 FEW015 BKN/// 24/20 Q1004 NOSIG
 
 
RJTY 191056Z AUTO 16005KT 10SM CLR 23/17 A2972 RMK AO2 SLP062 T02270174 FZRANO $